Time;durP1;ratioP1;P1;durP2;ratioP2;P2;SDS_P1;SDS_P2;PMS_P1;PMS_P2;Temp;Humidity;BMP_temperature;BMP_pressure;BME280_temperature;BME280_humidity;BME280_pressure;Samples;Min_cycle;Max_cycle;Signal;HPM_P1;HPM_P2
2022/09/08 00:32:52;;;;;;;3.95;2.60;;;16.20;51.00;;;;;;5012505;23;20239;-34
2022/09/08 00:35:23;;;;;;;3.70;2.90;;;16.20;51.00;;;;;;4908888;29;20221;-34
2022/09/08 00:37:54;;;;;;;3.25;2.50;;;16.30;51.10;;;;;;4877872;29;20370;-34
2022/09/08 00:40:26;;;;;;;4.40;2.97;;;16.30;51.10;;;;;;4877800;29;20208;-34
2022/09/08 00:43:07;;;;;;;4.10;2.67;;;16.30;51.00;;;;;;4877484;29;20229;-34
2022/09/08 00:45:40;;;;;;;4.38;2.90;;;16.40;51.10;;;;;;4877728;29;20233;-34
2022/09/08 00:48:18;;;;;;;4.68;2.67;;;16.40;51.00;;;;;;4886435;29;20214;-38
2022/09/08 00:50:49;;;;;;;3.97;2.65;;;16.40;51.00;;;;;;4877348;29;20629;-38
2022/09/08 00:53:21;;;;;;;3.20;2.53;;;16.40;51.00;;;;;;4877602;29;20209;-36
2022/09/08 00:55:52;;;;;;;2.40;2.20;;;16.50;51.10;;;;;;4876772;29;20228;-34
2022/09/08 00:58:22;;;;;;;4.15;2.35;;;16.50;51.10;;;;;;4887251;29;20201;-35
2022/09/08 01:00:53;;;;;;;3.85;2.42;;;16.50;51.00;;;;;;4894823;29;20212;-35
2022/09/08 01:03:26;;;;;;;2.70;2.28;;;16.50;51.00;;;;;;4894139;29;20205;-34
2022/09/08 01:06:08;;;;;;;3.72;2.83;;;16.60;51.00;;;;;;4894782;29;20637;-34
2022/09/08 01:14:48;;;;;;;3.35;2.70;;;16.70;51.00;;;;;;4876976;29;20209;-34
2022/09/08 01:17:21;;;;;;;3.25;2.38;;;16.70;50.90;;;;;;4886297;29;20232;-37
2022/09/08 01:19:54;;;;;;;2.97;2.42;;;16.70;50.90;;;;;;4895605;29;20201;-34
2022/09/08 01:22:54;;;;;;;3.33;2.40;;;16.80;51.00;;;;;;4895621;29;20240;-38
2022/09/08 01:25:47;;;;;;;3.25;2.50;;;16.80;50.90;;;;;;4895369;29;20404;-35
2022/09/08 01:28:25;;;;;;;3.15;2.40;;;16.80;51.00;;;;;;4888654;29;20265;-36
2022/09/08 01:30:57;;;;;;;2.60;2.22;;;16.80;50.90;;;;;;4891202;23;20206;-35
2022/09/08 01:33:27;;;;;;;3.13;1.98;;;16.80;50.90;;;;;;4913620;29;20235;-34
2022/09/08 01:35:58;;;;;;;4.18;2.70;;;16.80;50.90;;;;;;4903741;29;20221;-47
2022/09/08 01:38:30;;;;;;;4.95;2.70;;;16.90;51.00;;;;;;4895404;29;20205;-41
2022/09/08 01:41:01;;;;;;;2.63;2.33;;;16.90;51.00;;;;;;4894828;29;20236;-52
2022/09/08 01:43:34;;;;;;;3.13;2.35;;;16.90;51.00;;;;;;4894670;29;20205;-49
2022/09/08 01:46:04;;;;;;;6.05;2.75;;;16.90;51.00;;;;;;4895001;29;20225;-47
2022/09/08 01:48:35;;;;;;;4.93;2.60;;;17.00;51.00;;;;;;4894428;29;20667;-44
2022/09/08 01:51:09;;;;;;;3.65;2.38;;;17.00;50.90;;;;;;4894941;29;20208;-46
2022/09/08 01:53:40;;;;;;;3.03;2.40;;;17.00;50.90;;;;;;4894415;29;20201;-38
2022/09/08 01:56:10;;;;;;;3.40;2.30;;;17.00;50.90;;;;;;4893032;29;20241;-43
2022/09/08 01:58:43;;;;;;;3.95;2.10;;;17.00;50.90;;;;;;4892111;29;20197;-43
2022/09/08 02:01:13;;;;;;;4.95;2.42;;;17.10;51.00;;;;;;4894294;29;20232;-45
2022/09/08 02:03:44;;;;;;;4.60;2.45;;;17.10;51.00;;;;;;4893868;29;20200;-44
2022/09/08 02:06:15;;;;;;;2.60;2.25;;;17.10;51.00;;;;;;4894367;29;20336;-42
2022/09/08 02:08:46;;;;;;;4.10;2.25;;;17.10;51.00;;;;;;4894249;29;20240;-35
2022/09/08 02:11:16;;;;;;;3.58;1.92;;;17.10;51.00;;;;;;4894455;29;20218;-46
2022/09/08 02:13:49;;;;;;;4.05;2.80;;;17.20;51.00;;;;;;4894614;29;20284;-44
2022/09/08 02:16:20;;;;;;;3.72;2.22;;;17.20;51.00;;;;;;4894960;29;20223;-46
2022/09/08 02:18:51;;;;;;;3.25;2.30;;;17.20;51.00;;;;;;4893768;29;20212;-42
2022/09/08 02:21:23;;;;;;;2.95;2.45;;;17.20;51.00;;;;;;4894284;29;20232;-35
2022/09/08 02:23:55;;;;;;;2.75;2.10;;;17.20;51.00;;;;;;4894176;29;20201;-39
2022/09/08 02:26:28;;;;;;;2.80;2.05;;;17.20;50.90;;;;;;4894060;29;20813;-45
2022/09/08 02:29:01;;;;;;;2.90;2.30;;;17.20;50.90;;;;;;4893003;29;20269;-48
2022/09/08 02:31:32;;;;;;;4.07;2.58;;;17.20;51.00;;;;;;4910280;23;20691;-35
2022/09/08 02:34:02;;;;;;;2.65;2.15;;;17.30;51.00;;;;;;4912760;29;20310;-38
2022/09/08 02:36:33;;;;;;;3.10;2.28;;;17.30;50.90;;;;;;4898460;29;20888;-34
2022/09/08 02:39:04;;;;;;;3.63;2.25;;;17.30;51.30;;;;;;4881516;29;20210;-34
2022/09/08 02:41:35;;;;;;;3.75;2.05;;;17.30;51.00;;;;;;4875641;29;20358;-34
2022/09/08 02:44:08;;;;;;;3.70;2.28;;;17.40;51.00;;;;;;4875820;29;20213;-33
2022/09/08 02:46:38;;;;;;;2.72;2.15;;;17.40;51.00;;;;;;4875039;29;20222;-39
2022/09/08 02:49:10;;;;;;;4.45;2.30;;;17.30;50.90;;;;;;4893407;29;20209;-34
2022/09/08 02:51:41;;;;;;;4.18;2.42;;;17.40;51.00;;;;;;4893641;29;20212;-34
2022/09/08 02:54:12;;;;;;;4.13;2.33;;;17.40;50.90;;;;;;4893613;29;20205;-35
2022/09/08 02:56:42;;;;;;;3.00;1.80;;;17.40;50.90;;;;;;4893822;29;20232;-34
2022/09/08 02:59:15;;;;;;;4.00;2.25;;;17.40;51.50;;;;;;4880347;29;20670;-33
2022/09/08 03:01:46;;;;;;;3.47;2.22;;;17.50;50.90;;;;;;4874544;29;20258;-34
2022/09/08 03:04:17;;;;;;;3.13;1.95;;;17.50;50.90;;;;;;4874563;29;20573;-34
2022/09/08 03:06:48;;;;;;;2.50;1.90;;;17.50;50.90;;;;;;4875084;29;20221;-34
2022/09/08 03:09:19;;;;;;;2.20;1.92;;;17.50;51.60;;;;;;4875405;29;20685;-35
2022/09/08 03:11:49;;;;;;;3.00;2.10;;;17.50;50.90;;;;;;4875017;29;20202;-34
2022/09/08 03:14:22;;;;;;;3.15;1.77;;;17.60;51.00;;;;;;4877621;29;20197;-34
2022/09/08 03:16:53;;;;;;;2.60;2.05;;;17.50;50.90;;;;;;4874788;29;20229;-35
2022/09/08 03:19:23;;;;;;;2.40;2.00;;;17.60;50.90;;;;;;4880238;29;20205;-34
2022/09/08 03:21:54;;;;;;;2.83;1.95;;;17.60;50.90;;;;;;4874456;29;20229;-34
2022/09/08 03:24:25;;;;;;;2.17;1.80;;;17.60;50.90;;;;;;4874887;29;20205;-34
2022/09/08 03:26:55;;;;;;;3.92;1.95;;;17.60;50.90;;;;;;4874742;29;20234;-34
2022/09/08 03:29:29;;;;;;;3.45;1.95;;;17.70;50.90;;;;;;4875123;29;20201;-34
2022/09/08 03:31:59;;;;;;;2.78;1.95;;;17.70;50.90;;;;;;4902499;23;20312;-34
2022/09/08 03:34:30;;;;;;;2.63;2.20;;;17.70;50.90;;;;;;4874725;29;20201;-36
2022/09/08 03:37:01;;;;;;;3.55;2.03;;;17.70;50.90;;;;;;4874874;29;20225;-43
2022/09/08 03:39:32;;;;;;;3.33;1.98;;;17.70;50.90;;;;;;4890766;29;20204;-48
2022/09/08 03:42:02;;;;;;;3.80;2.20;;;17.70;50.90;;;;;;4897364;29;20216;-38
2022/09/08 03:44:35;;;;;;;2.40;1.77;;;17.80;50.90;;;;;;4897256;29;20201;-43
2022/09/08 03:47:06;;;;;;;3.00;1.63;;;17.70;50.90;;;;;;4896750;29;20228;-46
2022/09/08 03:49:36;;;;;;;3.30;2.08;;;17.80;50.90;;;;;;4892292;29;20215;-38
2022/09/08 03:52:07;;;;;;;2.35;1.77;;;17.80;50.80;;;;;;4881543;29;20209;-41
2022/09/08 03:54:50;;;;;;;2.90;2.05;;;17.80;50.80;;;;;;4878605;29;20696;-45
2022/09/08 03:57:23;;;;;;;2.30;1.90;;;17.80;50.80;;;;;;4883670;29;20200;-34
2022/09/08 03:59:57;;;;;;;2.95;1.73;;;17.90;50.80;;;;;;4915887;29;20212;-36
2022/09/08 04:02:28;;;;;;;2.70;2.08;;;17.90;50.80;;;;;;4909769;29;20229;-41
2022/09/08 04:05:00;;;;;;;2.33;1.88;;;17.90;50.70;;;;;;4896143;29;20205;-39
2022/09/08 04:07:33;;;;;;;2.38;1.60;;;17.90;50.70;;;;;;4896569;29;20200;-38
2022/09/08 04:10:05;;;;;;;3.00;1.88;;;17.90;50.70;;;;;;4896169;29;20209;-39
2022/09/08 04:12:36;;;;;;;2.95;1.45;;;18.00;50.70;;;;;;4896384;29;20209;-36
2022/09/08 04:15:10;;;;;;;3.17;1.92;;;18.00;50.60;;;;;;4896303;29;20225;-38
2022/09/08 04:17:41;;;;;;;2.85;2.00;;;18.00;50.60;;;;;;4895295;29;20254;-43
2022/09/08 04:20:13;;;;;;;2.40;1.80;;;18.00;50.60;;;;;;4896460;29;20280;-44
2022/09/08 04:22:44;;;;;;;2.05;1.55;;;18.00;50.40;;;;;;4896331;29;20291;-39
2022/09/08 04:25:15;;;;;;;2.33;1.80;;;18.10;50.40;;;;;;4896271;29;20232;-49
2022/09/08 04:27:45;;;;;;;2.15;1.63;;;18.10;50.40;;;;;;4896593;29;20201;-41
2022/09/08 04:30:18;;;;;;;2.35;1.60;;;18.10;50.30;;;;;;4896335;29;20228;-42
2022/09/08 04:32:49;;;;;;;2.60;1.77;;;18.10;50.20;;;;;;4921317;23;20712;-38
2022/09/08 04:35:20;;;;;;;2.20;1.70;;;18.10;50.20;;;;;;4914948;29;20217;-35
2022/09/08 04:37:51;;;;;;;3.33;1.75;;;18.10;50.10;;;;;;4896416;29;20200;-35
2022/09/08 04:40:21;;;;;;;1.90;1.58;;;18.10;50.10;;;;;;4895899;29;20216;-37
2022/09/08 04:42:52;;;;;;;2.00;1.73;;;18.10;50.20;;;;;;4895211;29;20229;-35
2022/09/08 04:45:25;;;;;;;2.45;1.80;;;18.10;50.30;;;;;;4895695;29;20228;-36
2022/09/08 04:47:55;;;;;;;2.28;1.65;;;18.10;50.20;;;;;;4895829;29;20204;-36
2022/09/08 04:50:26;;;;;;;1.52;1.42;;;18.10;50.30;;;;;;4895796;29;20209;-35
2022/09/08 04:52:57;;;;;;;2.75;1.55;;;18.10;50.30;;;;;;4896062;29;20205;-35
2022/09/08 04:55:27;;;;;;;2.70;1.88;;;18.10;50.30;;;;;;4896195;29;20750;-35
2022/09/08 04:57:58;;;;;;;2.05;1.70;;;18.10;50.20;;;;;;4901904;29;20192;-35
2022/09/08 05:00:30;;;;;;;3.22;1.77;;;18.10;50.20;;;;;;4914391;29;20197;-35
2022/09/08 05:03:02;;;;;;;1.85;1.63;;;18.10;50.10;;;;;;4901731;29;20577;-35
2022/09/08 05:05:33;;;;;;;2.78;1.65;;;18.00;50.00;;;;;;4895616;29;20684;-35
2022/09/08 05:08:03;;;;;;;2.05;1.70;;;18.00;50.10;;;;;;4895442;29;20197;-35
2022/09/08 05:10:34;;;;;;;2.88;1.60;;;18.00;50.10;;;;;;4905518;29;20192;-35
2022/09/08 05:13:05;;;;;;;2.33;2.03;;;18.00;50.10;;;;;;4914768;29;20196;-34
2022/09/08 05:15:38;;;;;;;2.17;1.85;;;18.00;50.10;;;;;;4905825;29;20217;-37
2022/09/08 05:18:08;;;;;;;2.00;1.70;;;18.00;50.10;;;;;;4897556;29;20672;-35
2022/09/08 05:20:39;;;;;;;1.83;1.65;;;18.00;50.10;;;;;;4896039;29;20208;-35
2022/09/08 05:23:10;;;;;;;2.85;1.80;;;18.00;50.20;;;;;;4895739;29;20259;-35
2022/09/08 05:25:40;;;;;;;3.08;2.05;;;18.00;50.20;;;;;;4895174;29;20220;-36
2022/09/08 05:28:11;;;;;;;2.72;1.80;;;18.00;50.20;;;;;;4895053;29;20212;-35
2022/09/08 05:30:45;;;;;;;2.20;1.90;;;18.00;50.20;;;;;;4894776;29;20212;-35
2022/09/08 06:32:55;;;;;;;3.10;2.55;;;17.60;50.40;;;;;;5202159;23;20718;-36
2022/09/08 06:35:29;;;;;;;3.28;2.50;;;17.60;50.40;;;;;;4926088;29;20216;-33
2022/09/08 06:38:02;;;;;;;3.05;2.75;;;17.50;50.40;;;;;;4910029;29;20195;-36
2022/09/08 06:40:38;;;;;;;3.90;2.88;;;17.50;50.40;;;;;;4893887;29;20205;-38
2022/09/08 06:43:15;;;;;;;3.28;2.63;;;17.50;50.50;;;;;;4893833;29;20247;-34
2022/09/08 06:45:50;;;;;;;3.67;2.83;;;17.50;50.50;;;;;;4894070;29;20220;-35
2022/09/08 06:48:30;;;;;;;7.18;4.80;;;17.50;50.50;;;;;;4908948;29;20204;-34
2022/09/08 06:51:13;;;;;;;13.98;12.65;;;17.50;51.60;;;;;;4912996;29;20207;-35
2022/09/08 06:53:49;;;;;;;9.75;8.73;;;17.50;50.80;;;;;;4912786;29;20204;-35
2022/09/08 06:56:30;;;;;;;10.48;9.48;;;17.50;50.90;;;;;;4913207;29;20589;-35
2022/09/08 06:59:05;;;;;;;12.07;10.98;;;17.50;51.00;;;;;;4913023;29;20207;-35
2022/09/08 07:01:42;;;;;;;12.07;10.95;;;17.50;50.80;;;;;;4912235;29;20200;-35
2022/09/08 07:04:29;;;;;;;15.25;13.70;;;17.50;50.70;;;;;;4908853;29;20315;-35
2022/09/08 07:07:08;;;;;;;15.30;13.80;;;17.40;50.50;;;;;;4875316;29;20232;-35
2022/09/08 07:09:43;;;;;;;13.80;12.32;;;17.40;50.50;;;;;;4889251;29;20692;-35
2022/09/08 07:12:34;;;;;;;15.60;13.23;;;17.40;50.50;;;;;;4893472;29;20196;-35
2022/09/08 07:15:24;;;;;;;14.00;12.45;;;17.40;50.60;;;;;;4893107;29;20225;-35
2022/09/08 07:18:01;;;;;;;15.07;12.60;;;17.30;50.50;;;;;;4904134;29;20211;-34
2022/09/08 07:20:33;;;;;;;13.75;11.52;;;17.30;50.60;;;;;;4912777;29;20204;-34
2022/09/08 07:23:08;;;;;;;12.60;11.20;;;17.30;50.70;;;;;;4896996;29;20242;-34
2022/09/08 07:25:43;;;;;;;12.45;10.52;;;17.20;50.80;;;;;;4893752;29;20257;-35
2022/09/08 07:28:15;;;;;;;13.48;10.68;;;17.20;50.80;;;;;;4893865;29;20208;-35
2022/09/08 07:30:48;;;;;;;12.52;11.05;;;17.20;50.90;;;;;;4912708;29;20200;-35
2022/09/08 07:33:24;;;;;;;16.10;11.70;;;17.20;50.90;;;;;;4923768;23;20231;-36
2022/09/08 07:36:14;;;;;;;19.75;13.10;;;17.20;51.00;;;;;;4903121;29;20232;-47
2022/09/08 07:38:50;;;;;;;18.90;12.80;;;17.20;51.00;;;;;;4885660;29;20209;-40
2022/09/08 07:41:24;;;;;;;14.73;10.00;;;17.10;51.00;;;;;;4874551;29;20201;-38
2022/09/08 07:43:59;;;;;;;11.98;9.27;;;17.10;51.00;;;;;;4874528;29;20236;-46
2022/09/08 07:46:45;;;;;;;11.25;8.02;;;17.00;51.00;;;;;;4874845;29;20231;-51
2022/09/08 07:49:24;;;;;;;11.68;7.13;;;16.90;50.90;;;;;;4856374;29;20285;-49
2022/09/08 07:52:07;;;;;;;7.40;5.85;;;16.80;50.70;;;;;;4856111;29;20213;-36
2022/09/08 07:55:05;;;;;;;5.55;3.60;;;16.60;50.50;;;;;;4855726;29;20258;-45
2022/09/08 07:57:44;;;;;;;2.67;2.47;;;16.50;50.40;;;;;;4856229;29;20250;-42
2022/09/08 08:00:19;;;;;;;6.75;3.20;;;16.50;50.20;;;;;;4859676;29;20228;-39
2022/09/08 08:03:08;;;;;;;18.27;13.73;;;16.40;50.20;;;;;;4881196;29;20200;-47
2022/09/08 08:05:45;;;;;;;16.20;12.00;;;16.20;50.20;;;;;;4892474;29;20233;-39
2022/09/08 08:08:35;;;;;;;11.40;9.15;;;16.10;50.20;;;;;;4889463;29;20209;-35
2022/09/08 08:11:16;;;;;;;10.05;6.18;;;16.00;50.50;;;;;;4874829;29;20201;-48
2022/09/08 08:14:06;;;;;;;9.07;4.95;;;15.90;50.70;;;;;;4874211;29;20206;-41
2022/09/08 08:16:52;;;;;;;5.05;3.78;;;15.80;51.00;;;;;;4873917;29;20221;-48
2022/09/08 08:19:40;;;;;;;14.48;8.52;;;15.70;51.20;;;;;;4892921;29;20298;-41
2022/09/08 08:22:17;;;;;;;19.30;10.75;;;15.60;51.30;;;;;;4893083;29;20212;-45
2022/09/08 08:25:00;;;;;;;16.40;8.82;;;15.50;51.40;;;;;;4893104;29;20232;-40
2022/09/08 08:27:38;;;;;;;9.60;5.53;;;15.40;51.50;;;;;;4894518;29;20209;-51
2022/09/08 08:30:19;;;;;;;6.75;4.75;;;15.30;51.60;;;;;;4896601;29;20201;-46
2022/09/08 08:32:57;;;;;;;11.65;7.93;;;15.30;51.70;;;;;;4919604;23;20244;-47
2022/09/08 08:35:33;;;;;;;11.95;8.80;;;15.20;51.70;;;;;;4909468;29;20228;-36
2022/09/08 08:38:06;;;;;;;15.65;11.05;;;15.20;51.80;;;;;;4893947;29;20204;-34
2022/09/08 08:40:50;;;;;;;15.93;13.02;;;15.10;51.60;;;;;;4877313;29;20212;-34
2022/09/08 08:43:46;;;;;;;16.20;13.75;;;15.00;51.60;;;;;;4877481;29;20221;-43
2022/09/08 08:46:32;;;;;;;16.70;11.90;;;14.90;51.50;;;;;;4877191;29;20222;-35
2022/09/08 08:49:24;;;;;;;11.27;9.43;;;14.80;51.40;;;;;;4891753;29;20674;-35
2022/09/08 08:52:07;;;;;;;10.38;9.27;;;14.80;51.70;;;;;;4896126;29;20197;-42
2022/09/08 08:54:57;;;;;;;10.10;8.98;;;14.70;51.90;;;;;;4895831;29;20700;-35
2022/09/08 08:57:47;;;;;;;9.40;8.50;;;14.70;52.30;;;;;;4896105;29;20208;-35
2022/09/08 09:00:21;;;;;;;11.38;8.52;;;14.70;52.40;;;;;;4896320;29;20440;-35
2022/09/08 09:03:07;;;;;;;9.80;8.85;;;14.60;52.40;;;;;;4895448;29;20852;-35
2022/09/08 09:06:00;;;;;;;9.50;8.50;;;14.60;52.50;;;;;;4895645;29;20692;-34
2022/09/08 09:09:15;;;;;;;11.63;7.97;;;14.60;52.50;;;;;;4878199;29;20213;-35
2022/09/08 09:12:00;;;;;;;8.70;7.80;;;14.70;52.50;;;;;;4867757;29;20385;-35
2022/09/08 09:15:17;;;;;;;9.63;8.15;;;14.70;52.30;;;;;;4876864;29;20209;-35
2022/09/08 09:18:27;;;;;;;7.97;7.18;;;14.70;52.40;;;;;;4880358;29;20689;-35
2022/09/08 09:21:06;;;;;;;8.35;7.18;;;14.70;52.30;;;;;;4886239;29;20216;-35
2022/09/08 09:23:44;;;;;;;9.23;7.90;;;14.70;52.30;;;;;;4895641;29;20247;-35
2022/09/08 09:26:20;;;;;;;7.93;7.13;;;14.70;52.30;;;;;;4895253;29;20217;-35
2022/09/08 09:29:01;;;;;;;7.88;7.10;;;14.70;52.30;;;;;;4883837;29;20197;-35
2022/09/08 09:31:58;;;;;;;8.93;6.95;;;14.70;52.50;;;;;;4895504;23;20206;-35
2022/09/08 09:35:06;;;;;;;7.75;6.95;;;14.70;52.50;;;;;;4897879;29;20544;-41
2022/09/08 09:37:57;;;;;;;7.53;6.82;;;14.80;52.50;;;;;;4892669;29;20262;-54
2022/09/08 09:40:38;;;;;;;7.68;6.93;;;14.80;53.00;;;;;;4858888;29;20286;-54
2022/09/08 09:43:35;;;;;;;8.27;6.90;;;14.80;52.40;;;;;;4865875;29;20676;-36
2022/09/08 09:46:24;;;;;;;7.00;6.30;;;14.80;52.40;;;;;;4882999;29;20220;-57
2022/09/08 09:49:21;;;;;;;8.20;7.05;;;14.80;52.30;;;;;;4882335;29;20208;-51
2022/09/08 09:52:04;;;;;;;8.13;7.20;;;14.90;52.30;;;;;;4876559;29;20208;-36
2022/09/08 09:54:48;;;;;;;7.22;6.40;;;14.80;52.20;;;;;;4876791;29;20198;-49
2022/09/08 09:57:53;;;;;;;10.02;6.63;;;14.90;52.30;;;;;;4876311;29;20204;-37
2022/09/08 10:00:25;;;;;;;8.35;6.60;;;14.90;52.30;;;;;;4853753;29;20204;-51
2022/09/08 10:03:36;;;;;;;8.05;6.20;;;14.80;52.20;;;;;;4861858;29;20714;-44
2022/09/08 10:06:26;;;;;;;7.82;6.07;;;14.80;52.30;;;;;;4873887;29;20251;-41
2022/09/08 10:09:33;;;;;;;7.78;6.97;;;14.80;52.20;;;;;;4877077;29;20202;-50
2022/09/08 10:12:36;;;;;;;7.30;6.60;;;14.80;52.30;;;;;;4876960;29;20197;-45
2022/09/08 10:15:57;;;;;;;6.65;6.05;;;14.80;52.30;;;;;;4858249;29;20226;-37
2022/09/08 10:19:03;;;;;;;6.72;6.13;;;14.80;52.30;;;;;;4864816;29;20201;-50
2022/09/08 10:22:06;;;;;;;6.85;6.13;;;14.80;52.20;;;;;;4877388;29;20568;-59
2022/09/08 10:25:01;;;;;;;6.75;6.00;;;14.80;52.20;;;;;;4873550;29;20240;-37
2022/09/08 10:28:01;;;;;;;7.30;6.05;;;14.80;52.10;;;;;;4875857;29;20202;-54
2022/09/08 10:31:06;;;;;;;7.57;6.50;;;14.80;52.10;;;;;;4893834;29;20205;-53
2022/09/08 11:36:48;;;;;;;6.05;5.45;;;14.70;52.10;;;;;;4987828;23;20654;-35
2022/09/08 11:39:31;;;;;;;5.95;5.35;;;14.70;52.20;;;;;;4880954;29;20201;-35
2022/09/08 11:42:25;;;;;;;5.90;5.40;;;14.70;52.10;;;;;;4874615;29;20212;-35
2022/09/08 11:45:05;;;;;;;5.45;4.95;;;14.70;52.20;;;;;;4874802;29;20236;-34
2022/09/08 11:48:11;;;;;;;5.70;5.13;;;14.70;52.20;;;;;;4874607;29;20201;-35
2022/09/08 11:51:05;;;;;;;6.18;5.35;;;14.60;52.20;;;;;;4861228;29;20209;-34
2022/09/08 11:54:08;;;;;;;5.78;5.28;;;14.60;52.20;;;;;;4893753;29;20201;-35
2022/09/08 11:57:08;;;;;;;5.53;4.93;;;14.60;52.20;;;;;;4893291;29;20216;-35
2022/09/08 11:59:52;;;;;;;6.65;5.57;;;14.60;52.20;;;;;;4857205;29;20240;-34
2022/09/08 12:02:57;;;;;;;6.03;5.43;;;14.60;52.20;;;;;;4877253;29;20198;-42
2022/09/08 12:05:36;;;;;;;5.80;5.20;;;14.60;52.20;;;;;;4883537;29;20228;-35
2022/09/08 12:08:29;;;;;;;5.53;5.03;;;14.60;52.10;;;;;;4894206;29;20210;-34
2022/09/08 12:11:14;;;;;;;5.88;5.28;;;14.60;52.20;;;;;;4877820;29;20197;-34
2022/09/08 12:13:52;;;;;;;4.78;4.38;;;14.60;52.20;;;;;;4878104;29;20206;-34
2022/09/08 12:16:51;;;;;;;5.60;5.05;;;14.60;52.20;;;;;;4878085;29;20225;-35
2022/09/08 12:19:52;;;;;;;6.55;5.63;;;14.60;52.20;;;;;;4878123;29;20197;-34
2022/09/08 12:22:54;;;;;;;5.50;4.80;;;14.50;52.10;;;;;;4855612;29;20197;-34
2022/09/08 12:25:58;;;;;;;4.88;4.45;;;14.50;52.20;;;;;;4859577;29;20233;-34
2022/09/08 12:28:47;;;;;;;6.28;5.13;;;14.50;52.20;;;;;;4860355;29;20694;-35
2022/09/08 12:31:30;;;;;;;5.78;5.15;;;14.50;52.20;;;;;;4896789;29;20613;-34
2022/09/08 12:37:06;;;;;;;4.95;4.45;;;14.50;52.20;;;;;;4894421;29;20233;-35
2022/09/08 12:40:12;;;;;;;5.70;4.93;;;14.50;52.10;;;;;;4896285;29;20686;-36
2022/09/08 12:43:08;;;;;;;5.38;4.82;;;14.40;52.10;;;;;;4896091;29;20201;-36
2022/09/08 12:45:53;;;;;;;5.25;4.63;;;14.40;52.10;;;;;;4895973;29;20239;-37
2022/09/08 12:48:32;;;;;;;4.75;4.35;;;14.50;52.10;;;;;;4896398;29;20200;-35
2022/09/08 12:51:12;;;;;;;5.13;4.63;;;14.40;52.10;;;;;;4895353;29;20223;-36
2022/09/08 12:54:10;;;;;;;5.20;4.70;;;14.40;52.20;;;;;;4895456;29;20201;-35
2022/09/08 12:56:56;;;;;;;5.00;4.50;;;14.40;52.20;;;;;;4895765;29;20220;-34
2022/09/08 12:59:42;;;;;;;4.93;4.45;;;14.40;52.20;;;;;;4895929;29;20212;-40
2022/09/08 13:02:31;;;;;;;5.30;4.80;;;14.40;52.20;;;;;;4896329;29;20205;-36
2022/09/08 13:05:19;;;;;;;5.13;4.10;;;14.30;52.20;;;;;;4896012;29;20229;-36
2022/09/08 13:07:58;;;;;;;4.57;4.18;;;14.30;52.20;;;;;;4896141;29;20216;-36
2022/09/08 13:10:34;;;;;;;4.75;4.25;;;14.30;52.20;;;;;;4895711;29;20223;-37
2022/09/08 13:13:32;;;;;;;4.97;4.30;;;14.30;52.20;;;;;;4894182;29;20204;-36
2022/09/08 13:16:19;;;;;;;5.38;4.45;;;14.30;52.20;;;;;;4895116;29;20284;-45
2022/09/08 13:19:01;;;;;;;4.70;4.30;;;14.30;52.10;;;;;;4898312;29;20199;-43
2022/09/08 13:21:54;;;;;;;4.75;4.30;;;14.30;52.10;;;;;;4893090;29;20683;-36
2022/09/08 13:24:32;;;;;;;4.55;4.15;;;14.20;52.10;;;;;;4895604;29;20225;-42
2022/09/08 13:27:19;;;;;;;4.85;4.35;;;14.20;52.00;;;;;;4895185;29;20223;-35
2022/09/08 13:30:14;;;;;;;5.00;4.50;;;14.20;52.00;;;;;;4908067;29;20199;-40
2022/09/08 13:33:03;;;;;;;4.35;3.95;;;14.20;52.10;;;;;;4913767;29;20200;-36
2022/09/08 13:35:56;;;;;;;4.70;4.25;;;14.20;52.10;;;;;;4925590;23;20743;-34
2022/09/08 13:38:47;;;;;;;4.57;4.18;;;14.20;52.10;;;;;;4908683;29;20209;-34
2022/09/08 13:41:35;;;;;;;4.43;3.92;;;14.10;52.10;;;;;;4895344;29;20567;-34
2022/09/08 13:44:40;;;;;;;4.35;3.97;;;14.10;52.10;;;;;;4895258;29;20216;-34
2022/09/08 13:47:47;;;;;;;4.20;3.85;;;14.10;52.10;;;;;;4894782;29;20669;-33
2022/09/08 13:50:57;;;;;;;5.18;3.97;;;14.10;52.00;;;;;;4895261;29;20216;-34
2022/09/08 13:53:48;;;;;;;4.25;3.85;;;14.10;52.00;;;;;;4876460;29;20575;-34
2022/09/08 13:56:23;;;;;;;4.22;3.83;;;14.10;52.00;;;;;;4876333;29;20225;-34
2022/09/08 13:58:58;;;;;;;4.28;3.88;;;14.10;52.60;;;;;;4894191;29;20264;-34
2022/09/08 14:01:42;;;;;;;4.50;4.10;;;14.00;52.00;;;;;;4895056;29;20687;-34
2022/09/08 14:04:29;;;;;;;3.97;3.67;;;14.00;52.00;;;;;;4894855;29;20204;-34
2022/09/08 14:07:10;;;;;;;4.28;3.88;;;14.00;52.00;;;;;;4905694;29;20227;-35
2022/09/08 14:09:41;;;;;;;4.32;3.90;;;14.00;52.00;;;;;;4899207;29;20208;-35
2022/09/08 14:12:24;;;;;;;3.97;3.67;;;14.00;52.00;;;;;;4894867;29;20692;-34
2022/09/08 14:15:17;;;;;;;3.50;3.20;;;14.00;51.90;;;;;;4894745;29;20700;-34
2022/09/08 14:18:21;;;;;;;3.95;3.60;;;13.90;51.90;;;;;;4894818;29;20669;-34
2022/09/08 14:20:57;;;;;;;3.97;3.67;;;13.90;51.90;;;;;;4896163;29;20197;-34
2022/09/08 14:23:55;;;;;;;3.78;3.47;;;13.90;52.00;;;;;;4913751;29;20207;-39
2022/09/08 14:26:50;;;;;;;5.65;3.60;;;13.90;52.00;;;;;;4913395;29;20716;-34
2022/09/08 14:29:46;;;;;;;3.88;3.50;;;13.90;51.90;;;;;;4913409;29;20260;-34
2022/09/08 14:32:40;;;;;;;4.07;3.67;;;13.90;52.00;;;;;;4913457;29;20196;-37
2022/09/08 14:35:31;;;;;;;3.70;3.40;;;13.80;51.90;;;;;;4922119;23;20243;-35
2022/09/08 14:38:33;;;;;;;3.47;3.15;;;13.80;51.90;;;;;;4893445;29;20197;-46
2022/09/08 14:41:19;;;;;;;3.60;3.30;;;13.80;51.90;;;;;;4893427;29;20201;-36
2022/09/08 14:44:15;;;;;;;3.55;3.25;;;13.80;51.90;;;;;;4894485;29;20200;-36
2022/09/08 14:46:57;;;;;;;3.50;3.20;;;13.80;51.80;;;;;;4893838;29;20240;-40
2022/09/08 14:49:52;;;;;;;3.45;3.15;;;13.80;51.80;;;;;;4894025;29;20200;-35
2022/09/08 14:52:47;;;;;;;3.42;3.13;;;13.80;51.80;;;;;;4881826;29;20662;-36
2022/09/08 14:55:29;;;;;;;3.10;2.83;;;13.80;51.90;;;;;;4874763;29;20225;-36
2022/09/08 14:58:25;;;;;;;4.57;3.13;;;13.80;51.90;;;;;;4875537;29;20266;-36
2022/09/08 15:01:01;;;;;;;3.65;3.35;;;13.70;51.90;;;;;;4875382;29;20229;-36
2022/09/08 15:03:35;;;;;;;3.58;3.28;;;13.80;51.90;;;;;;4875422;29;20215;-35
2022/09/08 15:06:06;;;;;;;3.58;3.28;;;13.70;51.90;;;;;;4876298;29;20244;-36
2022/09/08 15:08:39;;;;;;;3.70;3.28;;;13.70;52.00;;;;;;4893969;29;20204;-36
2022/09/08 15:11:14;;;;;;;3.05;2.85;;;13.70;51.90;;;;;;4893632;29;20749;-36
2022/09/08 15:14:04;;;;;;;3.17;2.88;;;13.70;51.90;;;;;;4893547;29;20196;-35
2022/09/08 15:16:41;;;;;;;3.40;3.10;;;13.70;51.80;;;;;;4893751;29;20221;-35
2022/09/08 15:19:22;;;;;;;3.63;3.08;;;13.70;51.80;;;;;;4893387;29;20200;-35
2022/09/08 15:21:54;;;;;;;3.13;2.83;;;13.70;51.80;;;;;;4886350;29;20332;-35
2022/09/08 15:24:44;;;;;;;3.20;2.88;;;13.70;51.70;;;;;;4877181;29;20202;-35
2022/09/08 15:27:22;;;;;;;3.38;3.08;;;13.70;51.80;;;;;;4875199;29;20198;-36
2022/09/08 15:30:05;;;;;;;3.10;2.80;;;13.70;51.80;;;;;;4902922;29;20510;-36
2022/09/08 15:32:46;;;;;;;3.33;2.65;;;13.60;51.80;;;;;;4912776;29;20215;-36
2022/09/08 15:35:37;;;;;;;2.80;2.60;;;13.60;51.80;;;;;;4912821;29;20575;-53
2022/09/08 15:38:16;;;;;;;3.72;3.42;;;13.60;51.80;;;;;;4899925;29;20260;-45
2022/09/08 15:41:09;;;;;;;3.85;3.00;;;13.60;51.90;;;;;;4897684;29;20200;-42
2022/09/08 15:43:48;;;;;;;3.33;3.03;;;13.60;51.90;;;;;;4897686;29;20260;-47
2022/09/08 15:46:29;;;;;;;3.22;2.92;;;13.60;51.90;;;;;;4897582;29;20333;-43
2022/09/08 15:49:05;;;;;;;3.50;2.60;;;13.60;51.90;;;;;;4897431;29;20802;-44
2022/09/08 15:51:47;;;;;;;2.90;2.70;;;13.60;51.90;;;;;;4894222;29;20206;-38
2022/09/08 15:54:41;;;;;;;2.80;2.58;;;13.60;51.80;;;;;;4878787;29;20681;-42
2022/09/08 15:57:25;;;;;;;2.70;2.45;;;13.60;51.80;;;;;;4878250;29;20264;-45
2022/09/08 16:00:28;;;;;;;3.10;2.80;;;13.60;51.80;;;;;;4879883;29;20197;-36
2022/09/08 16:03:04;;;;;;;2.53;2.33;;;13.60;51.70;;;;;;4876715;29;20635;-45
2022/09/08 16:05:51;;;;;;;2.88;2.60;;;13.50;51.70;;;;;;4878106;29;20236;-46
2022/09/08 16:08:41;;;;;;;2.85;2.60;;;13.50;51.80;;;;;;4894038;29;20296;-38
2022/09/08 16:11:24;;;;;;;3.22;2.60;;;13.50;51.80;;;;;;4896482;29;20221;-37
2022/09/08 16:14:11;;;;;;;2.83;2.42;;;13.50;51.80;;;;;;4896596;29;20197;-44
2022/09/08 16:17:06;;;;;;;3.03;2.50;;;13.50;51.80;;;;;;4896647;29;20300;-46
2022/09/08 16:19:39;;;;;;;3.45;2.60;;;13.50;51.90;;;;;;4897059;29;20197;-47
2022/09/08 16:22:35;;;;;;;2.67;2.47;;;13.50;51.80;;;;;;4890243;29;20670;-48
2022/09/08 16:25:12;;;;;;;2.90;2.60;;;13.50;51.90;;;;;;4892885;29;20243;-36
2022/09/08 16:27:57;;;;;;;3.53;2.90;;;13.50;51.80;;;;;;4896173;29;20209;-38
2022/09/08 16:30:54;;;;;;;2.50;2.30;;;13.50;51.80;;;;;;4905959;29;20224;-36
2022/09/08 16:33:29;;;;;;;2.75;2.50;;;13.50;51.80;;;;;;4915436;29;20207;-35
2022/09/08 16:36:12;;;;;;;2.65;2.40;;;13.50;51.80;;;;;;4916748;23;20240;-37
2022/09/08 16:39:00;;;;;;;2.50;2.22;;;13.40;51.80;;;;;;4896067;29;20205;-34
2022/09/08 16:41:42;;;;;;;2.50;2.30;;;13.40;51.80;;;;;;4896817;29;20757;-35